Time;durP1;ratioP1;P1;durP2;ratioP2;P2;SDS_P1;SDS_P2;PMS_P1;PMS_P2;Temp;Humidity;BMP_temperature;BMP_pressure;BME280_temperature;BME280_humidity;BME280_pressure;Samples;Min_cycle;Max_cycle;Signal;HPM_P1;HPM_P2
2022/04/15 00:01:34;;;;;;;13.57;6.28;;;;;;;;;;5031450;28;20352;-66
2022/04/15 00:03:59;;;;;;;15.55;7.25;;;;;;;;;;5024929;28;20037;-66
2022/04/15 00:06:25;;;;;;;11.57;7.00;;;;;;;;;;5028772;28;20029;-66
2022/04/15 00:08:51;;;;;;;20.05;6.95;;;;;;;;;;5028724;28;20385;-66
2022/04/15 00:11:16;;;;;;;10.70;6.25;;;;;;;;;;5022108;28;20025;-66
2022/04/15 00:13:42;;;;;;;12.23;6.47;;;;;;;;;;5018557;28;20029;-66
2022/04/15 00:16:09;;;;;;;13.85;7.20;;;;;;;;;;5028212;28;20107;-66
2022/04/15 00:18:35;;;;;;;13.68;7.45;;;;;;;;;;5042885;28;20034;-66
2022/04/15 00:21:01;;;;;;;17.05;7.18;;;;;;;;;;5026313;28;20378;-65
2022/04/15 00:23:27;;;;;;;11.98;7.10;;;;;;;;;;5027761;28;20033;-67
2022/04/15 00:25:54;;;;;;;11.88;7.35;;;;;;;;;;5031388;28;20367;-66
2022/04/15 00:28:20;;;;;;;14.20;8.13;;;;;;;;;;5039595;28;20132;-66
2022/04/15 00:30:45;;;;;;;19.38;8.52;;;;;;;;;;5018692;28;20029;-66
2022/04/15 00:33:11;;;;;;;11.95;7.65;;;;;;;;;;5023254;28;20078;-66
2022/04/15 00:35:36;;;;;;;13.63;7.60;;;;;;;;;;5039100;28;20029;-66
2022/04/15 00:38:02;;;;;;;17.02;8.43;;;;;;;;;;5024616;28;20040;-66
2022/04/15 00:40:28;;;;;;;14.55;8.48;;;;;;;;;;5020583;28;20386;-66
2022/04/15 00:42:54;;;;;;;13.38;7.72;;;;;;;;;;5048811;28;20074;-67
2022/04/15 00:45:19;;;;;;;14.38;8.20;;;;;;;;;;5045071;28;20705;-66
2022/04/15 00:47:56;;;;;;;13.45;8.40;;;;;;;;;;5026649;28;20037;-67
2022/04/15 00:50:23;;;;;;;13.23;8.00;;;;;;;;;;5041209;28;20116;-67
2022/04/15 00:52:50;;;;;;;14.77;7.70;;;;;;;;;;5030186;28;20543;-67
2022/04/15 00:55:19;;;;;;;18.13;8.13;;;;;;;;;;5018654;28;20036;-66
2022/04/15 00:57:51;;;;;;;15.18;8.52;;;;;;;;;;5018710;28;20029;-66
2022/04/15 01:00:17;;;;;;;15.55;7.95;;;;;;;;;;5025990;28;20033;-66
2022/04/15 01:02:49;;;;;;;16.55;8.23;;;;;;;;;;5027523;28;20112;-66
2022/04/15 01:05:15;;;;;;;15.70;8.25;;;;;;;;;;5027459;28;20473;-66
2022/04/15 01:07:43;;;;;;;13.07;7.90;;;;;;;;;;5014224;28;20038;-66
2022/04/15 01:10:11;;;;;;;14.10;7.97;;;;;;;;;;5027028;28;20039;-66
2022/04/15 01:12:43;;;;;;;13.23;7.90;;;;;;;;;;5021215;28;20387;-66
2022/04/15 01:15:10;;;;;;;12.95;7.72;;;;;;;;;;5042678;28;21758;-66
2022/04/15 01:17:37;;;;;;;14.00;8.50;;;;;;;;;;5015832;28;20034;-66
2022/04/15 01:20:10;;;;;;;16.08;8.68;;;;;;;;;;5035994;28;20425;-66
2022/04/15 01:22:44;;;;;;;18.17;9.35;;;;;;;;;;5019571;28;20053;-66
2022/04/15 01:25:15;;;;;;;17.67;9.07;;;;;;;;;;5001491;28;20063;-66
2022/04/15 01:27:42;;;;;;;16.10;8.93;;;;;;;;;;5010446;28;20030;-66
2022/04/15 01:30:12;;;;;;;13.43;8.38;;;;;;;;;;5010253;28;20034;-66
2022/04/15 01:32:37;;;;;;;15.65;8.55;;;;;;;;;;5044879;28;20030;-66
2022/04/15 01:35:05;;;;;;;15.73;9.00;;;;;;;;;;5016430;28;20427;-66
2022/04/15 01:37:31;;;;;;;16.80;9.50;;;;;;;;;;5011351;28;20025;-66
2022/04/15 01:39:57;;;;;;;18.83;9.60;;;;;;;;;;5025562;28;20435;-66
2022/04/15 01:42:23;;;;;;;18.23;10.27;;;;;;;;;;5029035;28;20159;-66
2022/04/15 01:44:48;;;;;;;18.45;9.48;;;;;;;;;;5029072;28;20034;-66
2022/04/15 01:47:16;;;;;;;17.77;9.25;;;;;;;;;;5029786;28;20475;-66
2022/04/15 01:49:42;;;;;;;18.33;9.77;;;;;;;;;;5024146;28;20075;-66
2022/04/15 01:52:08;;;;;;;17.08;10.00;;;;;;;;;;5025782;28;20538;-66
2022/04/15 01:54:33;;;;;;;18.98;9.95;;;;;;;;;;5028482;28;20045;-66
2022/04/15 01:56:58;;;;;;;20.65;10.52;;;;;;;;;;5011508;28;20033;-66
2022/04/15 01:59:24;;;;;;;17.70;9.68;;;;;;;;;;5021550;28;20029;-67
2022/04/15 02:01:54;;;;;;;17.77;10.07;;;;;;;;;;5030537;28;20116;-66
2022/04/15 02:04:21;;;;;;;18.52;9.90;;;;;;;;;;5023585;28;20174;-65
2022/04/15 02:06:46;;;;;;;19.85;10.35;;;;;;;;;;5029911;28;20060;-66
2022/04/15 02:09:11;;;;;;;18.38;9.95;;;;;;;;;;5028850;28;20497;-66
2022/04/15 02:11:37;;;;;;;18.98;10.52;;;;;;;;;;5030664;28;20502;-66
2022/04/15 02:14:02;;;;;;;22.10;10.35;;;;;;;;;;5029098;28;20029;-66
2022/04/15 02:16:27;;;;;;;19.38;10.60;;;;;;;;;;5032533;28;20071;-66
2022/04/15 02:18:53;;;;;;;17.63;9.48;;;;;;;;;;5027205;28;20045;-66
2022/04/15 02:21:18;;;;;;;16.02;9.63;;;;;;;;;;5037526;28;20056;-65
2022/04/15 02:23:43;;;;;;;16.13;9.40;;;;;;;;;;5044742;28;20034;-65
2022/04/15 02:26:09;;;;;;;19.80;10.30;;;;;;;;;;5013073;28;20068;-65
2022/04/15 02:28:35;;;;;;;19.27;10.13;;;;;;;;;;5029665;28;20112;-65
2022/04/15 02:31:00;;;;;;;17.92;9.88;;;;;;;;;;5034428;28;20060;-66
2022/04/15 02:33:26;;;;;;;23.05;11.32;;;;;;;;;;5049441;28;20040;-65
2022/04/15 02:35:51;;;;;;;19.20;9.90;;;;;;;;;;5020822;28;20049;-65
2022/04/15 02:38:17;;;;;;;19.30;9.90;;;;;;;;;;5017738;28;20034;-65
2022/04/15 02:40:43;;;;;;;17.45;9.77;;;;;;;;;;5027894;28;20029;-65
2022/04/15 02:43:09;;;;;;;20.60;10.85;;;;;;;;;;5050809;28;20028;-65
2022/04/15 02:45:34;;;;;;;18.27;10.93;;;;;;;;;;5031988;28;20080;-66
2022/04/15 02:48:00;;;;;;;21.30;10.73;;;;;;;;;;5018325;28;20025;-66
2022/04/15 02:50:27;;;;;;;20.08;10.35;;;;;;;;;;5025956;28;20034;-66
2022/04/15 02:52:52;;;;;;;18.48;10.15;;;;;;;;;;5039012;28;20033;-66
2022/04/15 02:55:18;;;;;;;18.08;9.50;;;;;;;;;;5043275;28;20044;-65
2022/04/15 02:57:43;;;;;;;18.52;10.93;;;;;;;;;;5030290;28;20112;-65
2022/04/15 03:00:09;;;;;;;19.67;10.13;;;;;;;;;;5033443;28;20040;-65
2022/04/15 03:02:34;;;;;;;21.15;10.95;;;;;;;;;;5031890;28;20057;-66
2022/04/15 03:05:01;;;;;;;17.00;10.15;;;;;;;;;;5044513;28;20036;-67
2022/04/15 03:07:26;;;;;;;21.35;10.50;;;;;;;;;;5038381;28;20501;-66
2022/04/15 03:09:52;;;;;;;18.75;10.15;;;;;;;;;;5014229;28;20041;-68
2022/04/15 03:12:17;;;;;;;22.35;10.38;;;;;;;;;;5020026;28;20033;-66
2022/04/15 03:14:43;;;;;;;18.63;10.48;;;;;;;;;;5032460;28;20037;-66
2022/04/15 03:17:09;;;;;;;22.45;11.10;;;;;;;;;;5033889;28;20040;-66
2022/04/15 03:19:34;;;;;;;18.35;9.75;;;;;;;;;;5037926;28;20029;-66
2022/04/15 03:22:00;;;;;;;18.27;9.93;;;;;;;;;;5033722;28;20135;-66
2022/04/15 03:24:26;;;;;;;18.40;9.85;;;;;;;;;;5036836;28;20091;-66
2022/04/15 03:26:51;;;;;;;21.20;10.57;;;;;;;;;;5028123;28;20063;-67
2022/04/15 03:29:17;;;;;;;19.48;10.23;;;;;;;;;;5012517;28;20057;-66
2022/04/15 03:31:42;;;;;;;21.50;11.00;;;;;;;;;;5024822;28;20037;-66
2022/04/15 03:34:08;;;;;;;22.67;10.60;;;;;;;;;;5029769;28;20033;-67
2022/04/15 03:36:33;;;;;;;20.10;10.77;;;;;;;;;;5028694;28;20030;-67
2022/04/15 03:38:58;;;;;;;22.38;10.48;;;;;;;;;;5019013;28;20038;-67
2022/04/15 03:41:24;;;;;;;17.77;10.40;;;;;;;;;;5031075;28;20391;-68
2022/04/15 03:43:50;;;;;;;25.65;11.48;;;;;;;;;;5020501;28;20041;-67
2022/04/15 03:46:16;;;;;;;19.85;10.88;;;;;;;;;;5044742;28;20101;-66
2022/04/15 03:48:42;;;;;;;24.00;11.60;;;;;;;;;;5030094;28;20040;-66
2022/04/15 03:51:08;;;;;;;23.60;11.45;;;;;;;;;;5014742;28;20395;-67
2022/04/15 03:53:35;;;;;;;27.63;12.45;;;;;;;;;;5013179;28;20408;-66
2022/04/15 03:56:00;;;;;;;26.33;12.85;;;;;;;;;;5027835;28;20033;-66
2022/04/15 03:58:26;;;;;;;30.13;14.10;;;;;;;;;;5029463;28;20479;-66
2022/04/15 04:00:52;;;;;;;32.45;14.65;;;;;;;;;;5041755;28;20033;-66
2022/04/15 04:03:18;;;;;;;29.67;14.00;;;;;;;;;;5029479;28;20068;-67
2022/04/15 04:05:43;;;;;;;28.73;13.27;;;;;;;;;;5041735;28;20068;-67
2022/04/15 04:08:09;;;;;;;25.65;12.98;;;;;;;;;;5022075;28;20490;-68
2022/04/15 04:10:34;;;;;;;29.75;13.27;;;;;;;;;;5049283;28;20044;-66
2022/04/15 04:13:00;;;;;;;30.17;13.65;;;;;;;;;;5035771;28;20037;-67
2022/04/15 04:15:26;;;;;;;30.95;13.45;;;;;;;;;;5026219;28;20026;-67
2022/04/15 04:17:51;;;;;;;27.75;14.43;;;;;;;;;;5026036;28;20060;-69
2022/04/15 04:20:17;;;;;;;29.80;14.18;;;;;;;;;;5030668;28;20091;-67
2022/04/15 04:22:43;;;;;;;30.30;14.25;;;;;;;;;;5035660;28;20053;-67
2022/04/15 04:25:09;;;;;;;25.38;13.73;;;;;;;;;;5020515;28;20083;-67
2022/04/15 04:27:40;;;;;;;29.88;14.70;;;;;;;;;;5038344;28;20030;-67
2022/04/15 04:30:07;;;;;;;26.33;13.88;;;;;;;;;;5033487;28;20037;-68
2022/04/15 04:32:32;;;;;;;29.08;13.40;;;;;;;;;;5035395;28;20146;-67
2022/04/15 04:34:58;;;;;;;26.42;13.77;;;;;;;;;;5052122;28;20419;-67
2022/04/15 04:37:24;;;;;;;25.90;13.23;;;;;;;;;;5039551;28;20094;-67
2022/04/15 04:39:49;;;;;;;26.58;13.52;;;;;;;;;;5019879;28;20038;-67
2022/04/15 04:42:15;;;;;;;29.05;13.13;;;;;;;;;;5026589;28;20112;-67
2022/04/15 04:44:42;;;;;;;21.67;13.00;;;;;;;;;;5015628;28;20483;-69
2022/04/15 04:47:09;;;;;;;25.88;13.93;;;;;;;;;;5038081;28;20470;-67
2022/04/15 04:49:35;;;;;;;21.50;12.52;;;;;;;;;;5034743;28;20116;-66
2022/04/15 04:52:01;;;;;;;23.92;13.25;;;;;;;;;;5030811;28;20104;-67
2022/04/15 04:54:26;;;;;;;26.98;13.75;;;;;;;;;;5018715;28;20116;-67
2022/04/15 04:56:51;;;;;;;26.92;13.32;;;;;;;;;;5019834;28;20105;-67
2022/04/15 04:59:17;;;;;;;28.27;13.32;;;;;;;;;;5014447;28;20038;-67
2022/04/15 05:01:42;;;;;;;22.88;12.85;;;;;;;;;;5011608;28;20053;-67
2022/04/15 05:04:08;;;;;;;19.20;11.65;;;;;;;;;;5025106;28;20084;-66
2022/04/15 05:06:33;;;;;;;23.48;12.45;;;;;;;;;;5028831;28;20406;-66
2022/04/15 05:08:59;;;;;;;24.27;13.07;;;;;;;;;;5041489;28;20053;-66
2022/04/15 05:11:24;;;;;;;23.58;12.82;;;;;;;;;;5024755;28;20109;-67
2022/04/15 05:13:52;;;;;;;21.13;12.88;;;;;;;;;;5012618;28;20040;-67
2022/04/15 05:16:18;;;;;;;21.70;12.70;;;;;;;;;;5019713;28;20033;-67
2022/04/15 05:18:43;;;;;;;20.58;11.93;;;;;;;;;;5028937;28;20486;-66
2022/04/15 05:21:09;;;;;;;18.90;11.60;;;;;;;;;;5021280;28;20119;-66
2022/04/15 05:23:34;;;;;;;19.90;10.70;;;;;;;;;;4993586;28;20042;-66
2022/04/15 05:26:00;;;;;;;18.65;10.90;;;;;;;;;;5019976;28;20045;-66
2022/04/15 05:28:25;;;;;;;19.08;10.68;;;;;;;;;;5011594;28;20041;-66
2022/04/15 05:30:50;;;;;;;16.05;9.52;;;;;;;;;;5037610;28;20600;-66
2022/04/15 05:33:16;;;;;;;16.95;9.80;;;;;;;;;;5046762;28;20041;-66
2022/04/15 05:35:41;;;;;;;17.52;9.85;;;;;;;;;;5015810;28;20109;-66
2022/04/15 05:38:08;;;;;;;16.02;9.15;;;;;;;;;;5030699;28;20030;-68
2022/04/15 05:40:33;;;;;;;18.42;9.60;;;;;;;;;;5024400;28;20056;-66
2022/04/15 05:42:59;;;;;;;16.48;9.20;;;;;;;;;;5029429;28;20483;-67
2022/04/15 05:45:25;;;;;;;15.65;8.60;;;;;;;;;;5039740;28;20025;-65
2022/04/15 05:47:53;;;;;;;17.67;8.38;;;;;;;;;;5044025;28;20063;-67
2022/04/15 05:50:21;;;;;;;14.63;8.60;;;;;;;;;;5034125;28;20033;-66
2022/04/15 05:52:46;;;;;;;14.15;8.35;;;;;;;;;;5023425;28;20038;-66
2022/04/15 05:55:12;;;;;;;13.73;8.20;;;;;;;;;;5014720;28;20061;-66
2022/04/15 05:57:37;;;;;;;13.82;7.88;;;;;;;;;;5026967;28;20088;-67
2022/04/15 06:00:06;;;;;;;14.30;8.00;;;;;;;;;;5034827;28;20372;-66
2022/04/15 06:02:32;;;;;;;13.60;7.30;;;;;;;;;;5047921;28;20064;-66
2022/04/15 06:04:58;;;;;;;12.52;7.50;;;;;;;;;;5036244;28;20068;-66
2022/04/15 06:07:23;;;;;;;14.65;7.97;;;;;;;;;;5047653;28;20028;-67
2022/04/15 06:09:48;;;;;;;14.05;7.97;;;;;;;;;;5054635;28;20028;-66
2022/04/15 06:12:15;;;;;;;15.07;7.53;;;;;;;;;;5052447;28;20060;-67
2022/04/15 06:14:41;;;;;;;14.32;7.00;;;;;;;;;;5052450;28;20036;-66
2022/04/15 06:17:07;;;;;;;12.40;6.78;;;;;;;;;;5051817;28;20062;-68
2022/04/15 06:19:32;;;;;;;11.45;7.07;;;;;;;;;;5044245;28;20448;-66
2022/04/15 06:21:58;;;;;;;12.48;7.40;;;;;;;;;;5030949;28;20067;-67
2022/04/15 06:24:23;;;;;;;12.27;6.88;;;;;;;;;;5053243;28;20029;-66
2022/04/15 06:26:50;;;;;;;12.73;7.72;;;;;;;;;;5041770;28;20471;-67
2022/04/15 06:29:16;;;;;;;9.60;6.43;;;;;;;;;;5033808;28;20060;-66
2022/04/15 06:31:41;;;;;;;10.55;6.40;;;;;;;;;;5042646;28;20069;-65
2022/04/15 06:34:06;;;;;;;11.82;6.43;;;;;;;;;;5033965;28;20060;-65
2022/04/15 06:36:32;;;;;;;9.38;5.63;;;;;;;;;;5045324;28;20036;-65
2022/04/15 06:38:57;;;;;;;10.30;5.32;;;;;;;;;;5039781;28;20033;-66
2022/04/15 06:41:23;;;;;;;8.43;4.50;;;;;;;;;;5033384;28;20375;-64
2022/04/15 06:43:48;;;;;;;7.43;4.43;;;;;;;;;;5032147;28;20029;-65
2022/04/15 06:46:14;;;;;;;9.70;4.40;;;;;;;;;;5043533;28;20030;-65
2022/04/15 06:48:39;;;;;;;7.40;4.07;;;;;;;;;;5032461;28;20120;-65
2022/04/15 06:51:04;;;;;;;6.70;4.25;;;;;;;;;;5053792;28;20063;-65
2022/04/15 06:53:30;;;;;;;7.28;4.25;;;;;;;;;;5033883;28;20037;-64
2022/04/15 06:55:56;;;;;;;5.43;3.90;;;;;;;;;;5054368;28;20069;-65
2022/04/15 06:58:21;;;;;;;7.85;3.85;;;;;;;;;;5047759;28;20040;-64
2022/04/15 07:00:47;;;;;;;8.63;3.97;;;;;;;;;;5012009;28;20038;-66
2022/04/15 07:03:13;;;;;;;6.95;3.67;;;;;;;;;;5045689;28;20039;-65
2022/04/15 07:05:40;;;;;;;5.20;3.47;;;;;;;;;;5051294;28;20112;-65
2022/04/15 07:08:08;;;;;;;7.03;3.60;;;;;;;;;;5040735;28;20093;-65
2022/04/15 07:10:35;;;;;;;5.22;3.20;;;;;;;;;;5026547;28;20073;-63
2022/04/15 07:13:00;;;;;;;5.80;3.80;;;;;;;;;;5049146;28;20037;-64
2022/04/15 07:15:26;;;;;;;7.10;3.90;;;;;;;;;;5050543;28;20041;-64
2022/04/15 07:17:51;;;;;;;6.65;4.00;;;;;;;;;;5038781;28;20032;-64
2022/04/15 07:20:17;;;;;;;5.75;3.92;;;;;;;;;;5033278;28;20427;-65
2022/04/15 07:22:42;;;;;;;5.43;3.92;;;;;;;;;;5038184;28;20070;-64
2022/04/15 07:25:08;;;;;;;6.30;3.80;;;;;;;;;;5051455;28;20060;-64
2022/04/15 07:27:34;;;;;;;7.10;4.10;;;;;;;;;;5041018;28;20026;-64
2022/04/15 07:29:59;;;;;;;7.35;3.67;;;;;;;;;;5053562;28;20040;-63
2022/04/15 07:32:27;;;;;;;7.97;4.00;;;;;;;;;;5051960;28;20111;-63
2022/04/15 07:34:52;;;;;;;6.78;3.85;;;;;;;;;;5051144;28;20085;-65
2022/04/15 07:37:18;;;;;;;11.20;4.32;;;;;;;;;;5051848;28;20518;-65
2022/04/15 07:39:44;;;;;;;8.60;4.70;;;;;;;;;;5051255;28;20107;-64
2022/04/15 07:42:11;;;;;;;8.07;4.38;;;;;;;;;;5051272;28;20033;-65
2022/04/15 07:44:37;;;;;;;7.22;4.32;;;;;;;;;;5049800;28;20029;-66
2022/04/15 07:47:04;;;;;;;9.70;4.60;;;;;;;;;;5052790;28;20037;-67
2022/04/15 07:49:29;;;;;;;7.95;4.28;;;;;;;;;;5051685;28;20036;-66
2022/04/15 07:51:55;;;;;;;9.73;5.05;;;;;;;;;;5053020;28;20493;-66
2022/04/15 07:54:20;;;;;;;9.10;4.72;;;;;;;;;;5052943;28;20041;-65
2022/04/15 07:56:46;;;;;;;8.77;5.10;;;;;;;;;;5032497;28;20033;-65
2022/04/15 07:59:11;;;;;;;9.98;4.63;;;;;;;;;;5032721;28;20033;-65
2022/04/15 08:01:38;;;;;;;9.20;4.55;;;;;;;;;;5030459;28;20060;-65
2022/04/15 08:04:05;;;;;;;9.32;5.30;;;;;;;;;;5042891;28;20032;-65
2022/04/15 08:06:31;;;;;;;8.68;5.90;;;;;;;;;;5050777;28;20451;-65
2022/04/15 08:08:57;;;;;;;9.15;5.50;;;;;;;;;;5033010;28;20064;-66
2022/04/15 08:11:24;;;;;;;12.00;6.00;;;;;;;;;;5039846;28;20071;-66
2022/04/15 08:13:49;;;;;;;11.70;6.25;;;;;;;;;;5039820;28;20428;-66
2022/04/15 08:16:16;;;;;;;9.50;6.20;;;;;;;;;;5052356;28;20112;-66
2022/04/15 08:18:41;;;;;;;9.55;5.80;;;;;;;;;;5024512;28;20084;-66
2022/04/15 08:21:07;;;;;;;7.85;5.50;;;;;;;;;;5047094;28;20079;-65
2022/04/15 08:23:33;;;;;;;10.30;6.00;;;;;;;;;;5042479;28;20524;-66
2022/04/15 08:25:58;;;;;;;8.90;5.50;;;;;;;;;;5030911;28;20034;-65
2022/04/15 08:28:23;;;;;;;9.60;5.60;;;;;;;;;;5032246;28;20025;-66
2022/04/15 08:30:49;;;;;;;9.48;5.57;;;;;;;;;;5049292;28;20455;-65
2022/04/15 08:33:14;;;;;;;9.30;5.90;;;;;;;;;;5051036;28;20044;-65
2022/04/15 08:35:40;;;;;;;10.65;5.93;;;;;;;;;;5051561;28;20107;-66
2022/04/15 08:38:06;;;;;;;10.85;6.20;;;;;;;;;;5050344;28;20029;-66
2022/04/15 08:40:36;;;;;;;10.85;6.20;;;;;;;;;;5051499;28;20459;-66
2022/04/15 08:43:04;;;;;;;10.17;6.00;;;;;;;;;;5032015;28;20083;-66
2022/04/15 08:45:31;;;;;;;8.73;5.72;;;;;;;;;;5031062;28;20094;-66
2022/04/15 08:47:59;;;;;;;8.38;5.90;;;;;;;;;;5040428;28;20029;-66
2022/04/15 08:50:25;;;;;;;9.48;6.00;;;;;;;;;;5051984;28;20086;-66
2022/04/15 08:52:55;;;;;;;10.45;6.05;;;;;;;;;;5049671;28;20367;-65
2022/04/15 08:55:24;;;;;;;9.68;6.07;;;;;;;;;;5051778;28;20029;-66
2022/04/15 08:57:52;;;;;;;8.57;5.93;;;;;;;;;;5049018;28;20069;-67
2022/04/15 09:00:19;;;;;;;10.15;6.32;;;;;;;;;;5035391;28;20068;-66
2022/04/15 09:02:45;;;;;;;9.90;5.97;;;;;;;;;;5031102;28;20116;-67
2022/04/15 09:05:12;;;;;;;10.00;6.00;;;;;;;;;;5029175;28;20037;-66
2022/04/15 09:07:37;;;;;;;10.20;6.10;;;;;;;;;;5048111;28;20060;-67
2022/04/15 09:10:05;;;;;;;9.80;5.82;;;;;;;;;;5029524;28;20025;-65
2022/04/15 09:12:31;;;;;;;9.27;6.00;;;;;;;;;;5048983;28;20119;-66
2022/04/15 09:15:08;;;;;;;8.48;5.72;;;;;;;;;;5050262;28;20445;-66
2022/04/15 09:17:49;;;;;;;8.77;5.68;;;;;;;;;;5041335;28;20037;-65
2022/04/15 09:20:15;;;;;;;9.45;6.00;;;;;;;;;;5031515;28;20091;-68
2022/04/15 09:22:40;;;;;;;8.60;5.55;;;;;;;;;;5051242;28;20041;-65
2022/04/15 09:25:06;;;;;;;8.68;5.53;;;;;;;;;;5047847;28;20415;-66
2022/04/15 09:27:35;;;;;;;7.75;5.32;;;;;;;;;;5036289;28;20069;-65
2022/04/15 09:30:01;;;;;;;8.10;5.30;;;;;;;;;;5033463;28;20029;-65
2022/04/15 09:32:29;;;;;;;8.02;5.40;;;;;;;;;;5035588;28;20064;-65
2022/04/15 09:35:01;;;;;;;6.80;4.80;;;;;;;;;;5033197;28;20029;-65
2022/04/15 09:37:42;;;;;;;7.68;4.70;;;;;;;;;;5036514;28;20102;-67
2022/04/15 09:40:18;;;;;;;;;;;;;;;;;;5034408;28;20033;-66
2022/04/15 09:42:48;;;;;;;8.38;4.18;;;;;;;;;;5032294;28;19924;-65
2022/04/15 09:45:22;;;;;;;9.93;5.10;;;;;;;;;;5013879;28;20058;-65
2022/04/15 09:47:57;;;;;;;7.32;4.70;;;;;;;;;;5034484;28;20120;-66
2022/04/15 09:50:32;;;;;;;9.10;4.90;;;;;;;;;;5032855;28;20117;-66
2022/04/15 09:53:18;;;;;;;10.40;5.30;;;;;;;;;;5026482;28;20033;-66
2022/04/15 09:55:48;;;;;;;7.45;4.68;;;;;;;;;;5034661;28;20152;-65
2022/04/15 09:58:18;;;;;;;7.10;4.68;;;;;;;;;;5055310;28;20029;-65
2022/04/15 10:00:48;;;;;;;7.13;4.88;;;;;;;;;;5049947;28;20096;-64
2022/04/15 10:03:22;;;;;;;6.43;3.90;;;;;;;;;;5033944;28;20476;-65
2022/04/15 10:05:55;;;;;;;7.18;4.00;;;;;;;;;;5035990;28;20040;-66
2022/04/15 10:08:22;;;;;;;6.00;3.63;;;;;;;;;;5055079;28;20050;-66
2022/04/15 10:10:50;;;;;;;6.47;3.95;;;;;;;;;;5047892;28;20034;-65
2022/04/15 10:13:16;;;;;;;5.25;3.63;;;;;;;;;;5054036;28;20040;-66
2022/04/15 10:15:43;;;;;;;6.30;4.13;;;;;;;;;;5051532;28;20064;-65
2022/04/15 10:18:09;;;;;;;5.97;4.10;;;;;;;;;;5053776;28;20091;-65
2022/04/15 10:20:37;;;;;;;6.13;4.20;;;;;;;;;;5048972;28;20033;-67
2022/04/15 10:23:08;;;;;;;6.47;4.05;;;;;;;;;;5033590;28;20055;-65
2022/04/15 10:25:35;;;;;;;6.88;4.28;;;;;;;;;;5032696;28;20068;-65
2022/04/15 10:28:11;;;;;;;6.38;4.18;;;;;;;;;;5036240;28;20400;-67
2022/04/15 10:30:38;;;;;;;6.63;4.40;;;;;;;;;;5053583;28;20035;-67
2022/04/15 10:33:03;;;;;;;6.53;4.35;;;;;;;;;;5052438;28;20419;-64
2022/04/15 10:35:31;;;;;;;6.40;4.40;;;;;;;;;;5052023;28;20033;-65
2022/04/15 10:38:11;;;;;;;7.57;4.30;;;;;;;;;;5046622;28;20104;-65
2022/04/15 10:40:41;;;;;;;7.50;4.20;;;;;;;;;;5031021;28;20045;-65
2022/04/15 10:43:20;;;;;;;7.03;4.18;;;;;;;;;;5049650;28;20025;-65
2022/04/15 10:45:46;;;;;;;6.93;4.53;;;;;;;;;;5033101;28;20084;-65
2022/04/15 10:48:12;;;;;;;6.78;4.20;;;;;;;;;;5036257;28;20418;-65
2022/04/15 10:50:40;;;;;;;7.40;4.20;;;;;;;;;;5033784;28;20052;-66
2022/04/15 10:53:15;;;;;;;7.20;4.13;;;;;;;;;;5048088;28;20033;-66
2022/04/15 10:55:52;;;;;;;7.60;4.57;;;;;;;;;;5041549;28;20361;-66
2022/04/15 10:58:18;;;;;;;6.38;4.30;;;;;;;;;;5045255;28;20160;-66
2022/04/15 11:03:32;;;;;;;8.45;4.55;;;;;;;;;;5052086;28;20481;-66
2022/04/15 11:06:04;;;;;;;6.63;4.20;;;;;;;;;;5050161;28;20040;-67
2022/04/15 11:08:45;;;;;;;6.50;4.20;;;;;;;;;;5042365;28;20030;-66
2022/04/15 11:11:10;;;;;;;7.75;4.53;;;;;;;;;;5037855;28;20430;-65
2022/04/15 11:13:39;;;;;;;8.75;4.65;;;;;;;;;;5053566;28;20040;-64
2022/04/15 11:16:11;;;;;;;7.38;4.30;;;;;;;;;;5047498;28;20388;-64
2022/04/15 11:18:59;;;;;;;6.70;4.25;;;;;;;;;;5051466;28;20533;-64
2022/04/15 11:21:36;;;;;;;7.82;4.70;;;;;;;;;;5051834;28;20102;-64
2022/04/15 11:24:12;;;;;;;7.00;4.75;;;;;;;;;;5051157;28;20072;-66
2022/04/15 11:26:42;;;;;;;8.27;5.20;;;;;;;;;;5019198;28;20038;-66
2022/04/15 11:29:11;;;;;;;6.83;4.20;;;;;;;;;;5033603;28;20021;-67
2022/04/15 11:31:49;;;;;;;8.38;4.43;;;;;;;;;;5031867;28;20029;-67
2022/04/15 11:34:20;;;;;;;6.32;4.03;;;;;;;;;;5033232;28;20104;-67
2022/04/15 11:36:50;;;;;;;6.00;4.53;;;;;;;;;;5044687;28;20032;-66
2022/04/15 11:39:17;;;;;;;7.05;4.50;;;;;;;;;;5053260;28;20029;-66
2022/04/15 11:41:52;;;;;;;7.60;4.70;;;;;;;;;;5041653;28;20029;-67
2022/04/15 11:44:18;;;;;;;7.00;4.57;;;;;;;;;;5029708;28;20025;-66
2022/04/15 11:46:47;;;;;;;7.32;4.55;;;;;;;;;;5043342;28;20035;-65
2022/04/15 11:49:17;;;;;;;7.60;4.68;;;;;;;;;;5051994;28;20422;-65
2022/04/15 11:51:50;;;;;;;6.67;4.40;;;;;;;;;;5048944;28;20155;-65
2022/04/15 11:54:16;;;;;;;6.47;4.53;;;;;;;;;;5046362;28;20029;-65
2022/04/15 11:56:42;;;;;;;7.80;4.72;;;;;;;;;;5050067;28;20328;-66
2022/04/15 11:59:09;;;;;;;7.35;5.07;;;;;;;;;;5048456;28;20466;-65
2022/04/15 12:01:36;;;;;;;8.07;5.35;;;;;;;;;;5032421;28;20439;-66
2022/04/15 12:04:02;;;;;;;7.88;5.60;;;;;;;;;;5033744;28;20071;-66
2022/04/15 12:06:31;;;;;;;7.70;4.97;;;;;;;;;;5032824;28;20458;-65
2022/04/15 12:08:58;;;;;;;8.35;4.82;;;;;;;;;;5034937;28;20482;-65
2022/04/15 12:11:25;;;;;;;7.78;4.80;;;;;;;;;;5051273;28;20175;-66
2022/04/15 12:13:58;;;;;;;6.55;4.50;;;;;;;;;;5049178;28;20124;-66
2022/04/15 12:16:28;;;;;;;8.27;5.32;;;;;;;;;;5052378;28;20029;-66
2022/04/15 12:18:53;;;;;;;8.73;5.20;;;;;;;;;;5048721;28;20056;-66
2022/04/15 12:21:20;;;;;;;8.40;5.18;;;;;;;;;;5033963;28;20095;-66
2022/04/15 12:24:09;;;;;;;9.10;5.05;;;;;;;;;;5030911;28;20108;-67
2022/04/15 12:26:43;;;;;;;8.48;4.95;;;;;;;;;;5031502;28;20572;-67
2022/04/15 12:31:53;;;;;;;9.00;5.35;;;;;;;;;;5038141;28;20047;-69
2022/04/15 12:34:31;;;;;;;7.03;4.65;;;;;;;;;;5052427;28;20025;-66
2022/04/15 12:36:57;;;;;;;9.18;5.20;;;;;;;;;;5047021;28;20040;-66
2022/04/15 12:39:22;;;;;;;7.53;4.82;;;;;;;;;;5032166;28;20029;-66
2022/04/15 12:41:48;;;;;;;7.43;5.07;;;;;;;;;;5039649;28;20071;-66
2022/04/15 12:44:27;;;;;;;7.88;5.05;;;;;;;;;;5051664;28;20060;-66
2022/04/15 12:47:02;;;;;;;8.25;5.18;;;;;;;;;;5048533;28;20116;-65
2022/04/15 12:49:35;;;;;;;9.93;5.18;;;;;;;;;;5051734;28;20466;-66
2022/04/15 12:52:11;;;;;;;7.90;5.05;;;;;;;;;;5048335;28;20029;-65
2022/04/15 12:54:55;;;;;;;9.20;5.30;;;;;;;;;;5033669;28;20033;-65
2022/04/15 12:57:21;;;;;;;7.88;5.10;;;;;;;;;;5043289;28;20105;-65
2022/04/15 12:59:47;;;;;;;7.35;5.10;;;;;;;;;;5042281;28;20120;-66
2022/04/15 13:02:13;;;;;;;8.50;5.22;;;;;;;;;;5051859;28;20025;-66
2022/04/15 13:04:38;;;;;;;7.25;5.15;;;;;;;;;;5048569;28;20055;-66
2022/04/15 13:07:04;;;;;;;6.93;5.20;;;;;;;;;;5045235;28;20031;-66
2022/04/15 13:09:30;;;;;;;8.90;5.30;;;;;;;;;;5036456;28;20029;-65
2022/04/15 13:11:56;;;;;;;9.40;5.60;;;;;;;;;;5044522;28;20052;-66
2022/04/15 13:14:22;;;;;;;9.43;5.63;;;;;;;;;;5037761;28;20033;-65
2022/04/15 13:16:47;;;;;;;7.63;5.57;;;;;;;;;;5048077;28;20427;-65
2022/04/15 13:19:12;;;;;;;7.70;5.47;;;;;;;;;;5050763;28;20466;-64
2022/04/15 13:21:39;;;;;;;9.43;5.55;;;;;;;;;;5046375;28;20072;-66
2022/04/15 13:24:04;;;;;;;7.47;5.35;;;;;;;;;;5045490;28;20140;-66
2022/04/15 13:26:30;;;;;;;8.38;5.50;;;;;;;;;;5011966;28;20112;-67
2022/04/15 13:28:56;;;;;;;8.90;5.55;;;;;;;;;;5034944;28;20030;-66
2022/04/15 13:31:21;;;;;;;9.57;5.70;;;;;;;;;;5041212;28;20042;-66
2022/04/15 13:33:47;;;;;;;7.28;5.03;;;;;;;;;;5044951;28;20069;-66
2022/04/15 13:36:12;;;;;;;8.20;5.25;;;;;;;;;;5049327;28;20379;-67
2022/04/15 13:38:37;;;;;;;7.43;5.25;;;;;;;;;;5049645;28;20025;-66
2022/04/15 13:41:03;;;;;;;8.05;5.97;;;;;;;;;;5045479;28;20417;-66
2022/04/15 13:43:28;;;;;;;10.63;5.50;;;;;;;;;;5011306;28;20407;-65
2022/04/15 13:45:54;;;;;;;6.88;5.38;;;;;;;;;;5047639;28;20061;-65
2022/04/15 13:48:20;;;;;;;8.77;5.85;;;;;;;;;;5050194;28;20067;-66
2022/04/15 13:50:46;;;;;;;8.60;5.45;;;;;;;;;;5048914;28;20034;-66
2022/04/15 13:58:39;;;;;;;6.65;5.30;;;;;;;;;;5040182;28;20045;-65
2022/04/15 14:01:05;;;;;;;7.50;5.55;;;;;;;;;;5033984;28;20291;-65
2022/04/15 14:03:33;;;;;;;8.57;5.45;;;;;;;;;;5051559;28;20382;-65
2022/04/15 14:05:58;;;;;;;7.43;5.28;;;;;;;;;;5040013;28;20040;-65
2022/04/15 14:08:23;;;;;;;8.70;5.10;;;;;;;;;;5050906;28;20025;-65
2022/04/15 14:10:51;;;;;;;8.07;5.60;;;;;;;;;;5050457;28;20475;-65
2022/04/15 14:13:17;;;;;;;6.47;5.35;;;;;;;;;;5049666;28;20032;-66
2022/04/15 14:15:42;;;;;;;6.28;5.07;;;;;;;;;;5050719;28;20033;-65
2022/04/15 14:18:08;;;;;;;7.18;5.20;;;;;;;;;;5052899;28;20033;-65
2022/04/15 14:20:34;;;;;;;7.43;5.13;;;;;;;;;;5047961;28;20521;-65
2022/04/15 14:23:00;;;;;;;8.70;5.68;;;;;;;;;;5034002;28;20051;-65
2022/04/15 14:25:25;;;;;;;7.85;5.40;;;;;;;;;;5051558;28;20029;-65
2022/04/15 14:27:50;;;;;;;10.45;5.90;;;;;;;;;;5052202;28;20083;-65
2022/04/15 14:30:16;;;;;;;7.00;5.30;;;;;;;;;;5038638;28;20473;-65
2022/04/15 14:32:41;;;;;;;7.72;5.38;;;;;;;;;;5035333;28;20033;-67
2022/04/15 14:35:07;;;;;;;7.15;5.30;;;;;;;;;;5038841;28;20107;-65
2022/04/15 14:37:33;;;;;;;7.13;5.38;;;;;;;;;;5035679;28;20383;-66
2022/04/15 14:39:58;;;;;;;7.28;5.30;;;;;;;;;;5045088;28;20467;-65
2022/04/15 14:42:23;;;;;;;8.60;5.40;;;;;;;;;;5053000;28;20029;-65
2022/04/15 14:44:49;;;;;;;8.63;5.57;;;;;;;;;;5040764;28;20057;-65